sensor_id;sensor_type;location;lat;lon;timestamp;pressure;altitude;pressure_sealevel;temperature;humidity
66479;BME280;53294;47.912;13.526;2023-02-28T00:00:31;96720.19;;;-1.94;65.95
66479;BME280;53294;47.912;13.526;2023-02-28T00:02:58;96716.13;;;-1.96;65.55
66479;BME280;53294;47.912;13.526;2023-02-28T00:05:26;96713.31;;;-2.02;65.83
66479;BME280;53294;47.912;13.526;2023-02-28T00:07:54;96713.91;;;-2.00;65.91
66479;BME280;53294;47.912;13.526;2023-02-28T00:10:26;96708.44;;;-2.05;65.76
66479;BME280;53294;47.912;13.526;2023-02-28T00:12:55;96715.72;;;-2.13;66.40
66479;BME280;53294;47.912;13.526;2023-02-28T00:15:25;96705.00;;;-2.12;66.18
66479;BME280;53294;47.912;13.526;2023-02-28T00:17:52;96707.63;;;-2.12;66.57
66479;BME280;53294;47.912;13.526;2023-02-28T00:20:19;96702.75;;;-2.15;66.16
66479;BME280;53294;47.912;13.526;2023-02-28T00:22:48;96698.09;;;-2.20;66.95
66479;BME280;53294;47.912;13.526;2023-02-28T00:25:20;96702.38;;;-2.19;66.78
66479;BME280;53294;47.912;13.526;2023-02-28T00:27:48;96703.56;;;-2.28;67.25
66479;BME280;53294;47.912;13.526;2023-02-28T00:30:18;96696.66;;;-2.22;66.78
66479;BME280;53294;47.912;13.526;2023-02-28T00:32:45;96699.53;;;-2.17;67.16
66479;BME280;53294;47.912;13.526;2023-02-28T00:35:12;96686.53;;;-2.25;67.72
66479;BME280;53294;47.912;13.526;2023-02-28T00:37:39;96698.31;;;-2.21;67.35
66479;BME280;53294;47.912;13.526;2023-02-28T00:40:06;96687.56;;;-2.26;67.68
66479;BME280;53294;47.912;13.526;2023-02-28T00:42:34;96699.94;;;-2.20;67.08
66479;BME280;53294;47.912;13.526;2023-02-28T00:45:01;96693.03;;;-2.21;67.69
66479;BME280;53294;47.912;13.526;2023-02-28T00:47:30;96690.41;;;-2.21;67.87
66479;BME280;53294;47.912;13.526;2023-02-28T00:49:58;96682.91;;;-2.24;67.65
66479;BME280;53294;47.912;13.526;2023-02-28T00:52:25;96685.34;;;-2.23;67.74
66479;BME280;53294;47.912;13.526;2023-02-28T00:54:51;96695.06;;;-2.17;67.47
66479;BME280;53294;47.912;13.526;2023-02-28T00:57:18;96687.97;;;-2.23;67.78
66479;BME280;53294;47.912;13.526;2023-02-28T00:59:45;96677.66;;;-2.24;68.26
66479;BME280;53294;47.912;13.526;2023-02-28T01:02:11;96672.78;;;-2.21;68.15
66479;BME280;53294;47.912;13.526;2023-02-28T01:04:38;96674.41;;;-2.26;67.65
66479;BME280;53294;47.912;13.526;2023-02-28T01:07:05;96681.72;;;-2.28;68.46
66479;BME280;53294;47.912;13.526;2023-02-28T01:09:32;96674.00;;;-2.23;68.66
66479;BME280;53294;47.912;13.526;2023-02-28T01:11:58;96677.25;;;-2.21;68.47
66479;BME280;53294;47.912;13.526;2023-02-28T01:14:25;96675.22;;;-2.19;68.37
66479;BME280;53294;47.912;13.526;2023-02-28T01:16:52;96675.63;;;-2.29;68.77
66479;BME280;53294;47.912;13.526;2023-02-28T01:19:18;96681.69;;;-2.35;69.41
66479;BME280;53294;47.912;13.526;2023-02-28T01:21:45;96673.38;;;-2.39;69.58
66479;BME280;53294;47.912;13.526;2023-02-28T01:24:12;96668.72;;;-2.37;69.25
66479;BME280;53294;47.912;13.526;2023-02-28T01:26:39;96676.03;;;-2.39;69.52
66479;BME280;53294;47.912;13.526;2023-02-28T01:29:05;96680.09;;;-2.29;69.33
66479;BME280;53294;47.912;13.526;2023-02-28T01:31:32;96676.44;;;-2.28;68.80
66479;BME280;53294;47.912;13.526;2023-02-28T01:33:59;96687.56;;;-2.26;69.06
66479;BME280;53294;47.912;13.526;2023-02-28T01:36:26;96675.41;;;-2.21;68.59
66479;BME280;53294;47.912;13.526;2023-02-28T01:38:53;96668.94;;;-2.18;68.77
66479;BME280;53294;47.912;13.526;2023-02-28T01:46:15;96670.75;;;-2.39;69.43
66479;BME280;53294;47.912;13.526;2023-02-28T01:49:09;96667.53;;;-2.41;69.52
66479;BME280;53294;47.912;13.526;2023-02-28T01:51:46;96674.00;;;-2.37;69.34
66479;BME280;53294;47.912;13.526;2023-02-28T01:54:33;96662.66;;;-2.44;69.83
66479;BME280;53294;47.912;13.526;2023-02-28T01:59:33;96670.94;;;-2.54;70.52
66479;BME280;53294;47.912;13.526;2023-02-28T02:02:02;96662.88;;;-2.39;69.84
66479;BME280;53294;47.912;13.526;2023-02-28T02:04:36;96663.91;;;-2.33;69.26
66479;BME280;53294;47.912;13.526;2023-02-28T02:07:04;96663.47;;;-2.37;69.64
66479;BME280;53294;47.912;13.526;2023-02-28T02:09:30;96660.44;;;-2.47;70.48
66479;BME280;53294;47.912;13.526;2023-02-28T02:11:57;96663.91;;;-2.33;69.77
66479;BME280;53294;47.912;13.526;2023-02-28T02:14:39;96660.63;;;-2.42;70.01
66479;BME280;53294;47.912;13.526;2023-02-28T02:17:31;96657.41;;;-2.44;69.87
66479;BME280;53294;47.912;13.526;2023-02-28T02:40:03;96651.50;;;-2.46;70.14
66479;BME280;53294;47.912;13.526;2023-02-28T02:45:33;96649.28;;;-2.49;70.27
66479;BME280;53294;47.912;13.526;2023-02-28T02:48:04;96651.91;;;-2.49;70.11
66479;BME280;53294;47.912;13.526;2023-02-28T02:50:39;96648.88;;;-2.53;70.45
66479;BME280;53294;47.912;13.526;2023-02-28T02:53:09;96647.25;;;-2.54;70.26
66479;BME280;53294;47.912;13.526;2023-02-28T02:55:40;96644.81;;;-2.55;70.03
66479;BME280;53294;47.912;13.526;2023-02-28T02:58:11;96647.88;;;-2.45;69.96
66479;BME280;53294;47.912;13.526;2023-02-28T03:00:45;96645.06;;;-2.43;69.82
66479;BME280;53294;47.912;13.526;2023-02-28T03:03:16;96650.13;;;-2.48;69.94
66479;BME280;53294;47.912;13.526;2023-02-28T03:05:49;96643.41;;;-2.51;70.68
66479;BME280;53294;47.912;13.526;2023-02-28T03:08:16;96650.47;;;-2.58;70.74
66479;BME280;53294;47.912;13.526;2023-02-28T03:10:45;96636.31;;;-2.71;70.96
66479;BME280;53294;47.912;13.526;2023-02-28T03:22:15;96637.94;;;-2.76;71.60
66479;BME280;53294;47.912;13.526;2023-02-28T03:27:16;96642.38;;;-2.70;71.00
66479;BME280;53294;47.912;13.526;2023-02-28T03:29:48;96649.25;;;-2.76;72.02
66479;BME280;53294;47.912;13.526;2023-02-28T03:32:26;96649.06;;;-2.67;70.84
66479;BME280;53294;47.912;13.526;2023-02-28T03:37:42;96648.44;;;-2.69;70.87
66479;BME280;53294;47.912;13.526;2023-02-28T03:40:14;96652.88;;;-2.77;71.83
66479;BME280;53294;47.912;13.526;2023-02-28T03:42:46;96654.69;;;-2.84;71.76
66479;BME280;53294;47.912;13.526;2023-02-28T03:45:18;96650.88;;;-2.75;71.34
66479;BME280;53294;47.912;13.526;2023-02-28T03:48:30;96647.63;;;-2.77;71.59
66479;BME280;53294;47.912;13.526;2023-02-28T03:50:59;96650.88;;;-2.61;70.71
66479;BME280;53294;47.912;13.526;2023-02-28T03:53:33;96644.00;;;-2.76;71.19
66479;BME280;53294;47.912;13.526;2023-02-28T03:56:09;96651.69;;;-2.67;71.28
66479;BME280;53294;47.912;13.526;2023-02-28T03:58:49;96646.03;;;-2.64;70.69
66479;BME280;53294;47.912;13.526;2023-02-28T04:01:32;96648.06;;;-2.66;71.25
66479;BME280;53294;47.912;13.526;2023-02-28T04:03:59;96648.06;;;-2.66;70.89
66479;BME280;53294;47.912;13.526;2023-02-28T04:06:27;96656.56;;;-2.51;70.74
66479;BME280;53294;47.912;13.526;2023-02-28T04:08:53;96652.75;;;-2.42;69.84
66479;BME280;53294;47.912;13.526;2023-02-28T04:11:38;96654.38;;;-2.41;69.84
66479;BME280;53294;47.912;13.526;2023-02-28T04:14:06;96655.38;;;-2.42;69.87
66479;BME280;53294;47.912;13.526;2023-02-28T04:16:35;96663.06;;;-2.47;70.55
66479;BME280;53294;47.912;13.526;2023-02-28T04:19:04;96660.63;;;-2.48;70.45
66479;BME280;53294;47.912;13.526;2023-02-28T04:21:40;96655.75;;;-2.58;70.25
66479;BME280;53294;47.912;13.526;2023-02-28T04:24:09;96661.03;;;-2.45;70.22
66479;BME280;53294;47.912;13.526;2023-02-28T04:26:42;96674.38;;;-2.40;69.71
66479;BME280;53294;47.912;13.526;2023-02-28T04:29:11;96667.09;;;-2.51;70.43
66479;BME280;53294;47.912;13.526;2023-02-28T04:31:39;96661.25;;;-2.53;70.36
66479;BME280;53294;47.912;13.526;2023-02-28T04:34:06;96654.09;;;-2.73;70.84
66479;BME280;53294;47.912;13.526;2023-02-28T04:36:32;96661.19;;;-2.66;71.01
66479;BME280;53294;47.912;13.526;2023-02-28T04:38:59;96657.13;;;-2.69;71.07
66479;BME280;53294;47.912;13.526;2023-02-28T04:41:26;96656.97;;;-2.61;70.63
66479;BME280;53294;47.912;13.526;2023-02-28T04:43:57;96651.28;;;-2.64;70.59
66479;BME280;53294;47.912;13.526;2023-02-28T04:46:23;96648.44;;;-2.69;70.84
66479;BME280;53294;47.912;13.526;2023-02-28T04:48:50;96645.22;;;-2.72;70.91
66479;BME280;53294;47.912;13.526;2023-02-28T04:51:18;96651.69;;;-2.67;70.57
66479;BME280;53294;47.912;13.526;2023-02-28T04:53:46;96645.81;;;-2.69;70.68
66479;BME280;53294;47.912;13.526;2023-02-28T04:56:15;96648.44;;;-2.69;70.18
66479;BME280;53294;47.912;13.526;2023-02-28T04:58:42;96648.66;;;-2.64;70.24
66479;BME280;53294;47.912;13.526;2023-02-28T05:01:25;96652.47;;;-2.74;70.66
66479;BME280;53294;47.912;13.526;2023-02-28T05:03:53;96654.50;;;-2.82;70.93
66479;BME280;53294;47.912;13.526;2023-02-28T05:06:22;96655.09;;;-2.87;71.53
66479;BME280;53294;47.912;13.526;2023-02-28T05:08:51;96650.63;;;-2.93;71.25
66479;BME280;53294;47.912;13.526;2023-02-28T05:11:20;96661.78;;;-2.78;71.02
66479;BME280;53294;47.912;13.526;2023-02-28T05:13:48;96655.75;;;-2.72;70.90
66479;BME280;53294;47.912;13.526;2023-02-28T05:16:16;96658.94;;;-2.83;70.58
66479;BME280;53294;47.912;13.526;2023-02-28T05:18:43;96662.59;;;-2.84;71.16
66479;BME280;53294;47.912;13.526;2023-02-28T05:21:23;96668.25;;;-2.74;70.60
66479;BME280;53294;47.912;13.526;2023-02-28T05:23:51;96663.00;;;-2.74;70.38
66479;BME280;53294;47.912;13.526;2023-02-28T05:26:19;96664.81;;;-2.81;71.31
66479;BME280;53294;47.912;13.526;2023-02-28T05:28:46;96666.41;;;-2.93;71.17
66479;BME280;53294;47.912;13.526;2023-02-28T05:31:13;96662.97;;;-2.87;71.02
66479;BME280;53294;47.912;13.526;2023-02-28T05:33:40;96667.22;;;-2.86;71.01
66479;BME280;53294;47.912;13.526;2023-02-28T05:36:07;96665.38;;;-2.92;71.43
66479;BME280;53294;47.912;13.526;2023-02-28T05:38:33;96670.63;;;-2.99;71.15
66479;BME280;53294;47.912;13.526;2023-02-28T05:41:10;96675.47;;;-2.96;71.43
66479;BME280;53294;47.912;13.526;2023-02-28T05:43:37;96673.03;;;-3.04;72.25
66479;BME280;53294;47.912;13.526;2023-02-28T05:46:05;96680.75;;;-2.89;71.50
66479;BME280;53294;47.912;13.526;2023-02-28T05:48:37;96675.47;;;-2.96;71.80
66479;BME280;53294;47.912;13.526;2023-02-28T05:51:05;96676.72;;;-2.85;70.77
66479;BME280;53294;47.912;13.526;2023-02-28T05:53:32;96687.19;;;-2.98;71.70
66479;BME280;53294;47.912;13.526;2023-02-28T05:55:59;96692.06;;;-2.95;71.28
66479;BME280;53294;47.912;13.526;2023-02-28T05:58:26;96686.84;;;-2.82;71.03
66479;BME280;53294;47.912;13.526;2023-02-28T06:00:58;96688.28;;;-2.79;70.64
66479;BME280;53294;47.912;13.526;2023-02-28T06:03:26;96681.84;;;-2.63;70.11
66479;BME280;53294;47.912;13.526;2023-02-28T06:05:53;96696.13;;;-2.86;71.30
66479;BME280;53294;47.912;13.526;2023-02-28T06:08:20;96691.28;;;-2.89;71.28
66479;BME280;53294;47.912;13.526;2023-02-28T06:10:47;96693.75;;;-2.81;70.85
66479;BME280;53294;47.912;13.526;2023-02-28T06:13:14;96691.72;;;-2.85;71.08
66479;BME280;53294;47.912;13.526;2023-02-28T06:15:40;96693.34;;;-2.78;70.85
66479;BME280;53294;47.912;13.526;2023-02-28T06:18:07;96699.41;;;-2.71;70.49
66479;BME280;53294;47.912;13.526;2023-02-28T06:20:34;96686.13;;;-2.62;70.40
66479;BME280;53294;47.912;13.526;2023-02-28T06:23:02;96697.03;;;-2.52;70.42
66479;BME280;53294;47.912;13.526;2023-02-28T06:25:29;96699.06;;;-2.47;69.86
66479;BME280;53294;47.912;13.526;2023-02-28T06:27:56;96711.06;;;-2.31;70.02
66479;BME280;53294;47.912;13.526;2023-02-28T06:30:22;96707.59;;;-2.32;69.74
66479;BME280;53294;47.912;13.526;2023-02-28T06:32:53;96712.25;;;-2.41;70.09
66479;BME280;53294;47.912;13.526;2023-02-28T06:35:19;96720.59;;;-2.17;69.52
66479;BME280;53294;47.912;13.526;2023-02-28T06:37:46;96717.75;;;-2.15;69.39
66479;BME280;53294;47.912;13.526;2023-02-28T06:40:13;96715.31;;;-2.04;68.84
66479;BME280;53294;47.912;13.526;2023-02-28T06:42:41;96716.13;;;-1.96;68.85
66479;BME280;53294;47.912;13.526;2023-02-28T06:45:10;96715.31;;;-2.04;69.08
66479;BME280;53294;47.912;13.526;2023-02-28T06:47:38;96720.00;;;-2.12;69.14
66479;BME280;53294;47.912;13.526;2023-02-28T06:50:06;96722.41;;;-1.98;68.95
66479;BME280;53294;47.912;13.526;2023-02-28T06:52:33;96728.31;;;-1.89;68.36
66479;BME280;53294;47.912;13.526;2023-02-28T06:55:04;96723.44;;;-1.92;68.67
66479;BME280;53294;47.912;13.526;2023-02-28T06:57:33;96722.81;;;-2.01;68.25
66479;BME280;53294;47.912;13.526;2023-02-28T07:00:06;96729.31;;;-1.96;68.74
66479;BME280;53294;47.912;13.526;2023-02-28T07:02:36;96731.34;;;-1.99;68.54
66479;BME280;53294;47.912;13.526;2023-02-28T07:05:05;96730.13;;;-1.89;68.45
66479;BME280;53294;47.912;13.526;2023-02-28T07:07:32;96728.69;;;-1.92;68.71
66479;BME280;53294;47.912;13.526;2023-02-28T07:09:58;96734.38;;;-2.02;69.17
66479;BME280;53294;47.912;13.526;2023-02-28T07:12:25;96744.09;;;-1.89;68.68
66479;BME280;53294;47.912;13.526;2023-02-28T07:14:52;96735.41;;;-1.89;68.94
66479;BME280;53294;47.912;13.526;2023-02-28T07:17:18;96740.03;;;-2.05;69.07
66479;BME280;53294;47.912;13.526;2023-02-28T07:19:45;96731.53;;;-1.87;68.97
66479;BME280;53294;47.912;13.526;2023-02-28T07:22:11;96736.81;;;-1.93;68.88
66479;BME280;53294;47.912;13.526;2023-02-28T07:24:41;96742.28;;;-1.95;69.32
66479;BME280;53294;47.912;13.526;2023-02-28T07:27:07;96749.34;;;-1.82;69.15
66479;BME280;53294;47.912;13.526;2023-02-28T07:29:34;96747.75;;;-1.83;69.13
66479;BME280;53294;47.912;13.526;2023-02-28T07:32:01;96738.84;;;-1.69;69.14
66479;BME280;53294;47.912;13.526;2023-02-28T07:34:27;96741.66;;;-1.50;68.74
66479;BME280;53294;47.912;13.526;2023-02-28T07:36:55;96732.72;;;-1.36;68.53
66479;BME280;53294;47.912;13.526;2023-02-28T07:39:22;96733.94;;;-1.45;68.65
66479;BME280;53294;47.912;13.526;2023-02-28T07:41:49;96743.75;;;-0.94;68.35
66479;BME280;53294;47.912;13.526;2023-02-28T07:44:15;96740.28;;;-0.87;67.82
66479;BME280;53294;47.912;13.526;2023-02-28T07:46:42;96736.81;;;-0.81;67.17
66479;BME280;53294;47.912;13.526;2023-02-28T07:49:09;96740.09;;;-0.47;67.33
66479;BME280;53294;47.912;13.526;2023-02-28T07:51:35;96740.47;;;-0.37;66.74
66479;BME280;53294;47.912;13.526;2023-02-28T07:54:02;96739.56;;;-0.24;66.65
66479;BME280;53294;47.912;13.526;2023-02-28T07:56:29;96726.81;;;-0.02;65.92
66479;BME280;53294;47.912;13.526;2023-02-28T07:58:56;96731.59;;;0.14;64.69
66479;BME280;53294;47.912;13.526;2023-02-28T08:01:23;96733.66;;;-0.20;65.06
66479;BME280;53294;47.912;13.526;2023-02-28T08:03:50;96738.09;;;-0.13;65.05
66479;BME280;53294;47.912;13.526;2023-02-28T08:06:21;96742.00;;;-0.23;64.54
66479;BME280;53294;47.912;13.526;2023-02-28T08:08:49;96739.94;;;-0.14;64.85
66479;BME280;53294;47.912;13.526;2023-02-28T08:11:16;96741.94;;;-0.09;64.39
66479;BME280;53294;47.912;13.526;2023-02-28T08:13:44;96745.38;;;0.16;64.39
66479;BME280;53294;47.912;13.526;2023-02-28T08:16:12;96746.03;;;0.37;63.96
66479;BME280;53294;47.912;13.526;2023-02-28T08:18:52;96738.72;;;0.39;63.24
66479;BME280;53294;47.912;13.526;2023-02-28T08:21:20;96734.97;;;0.91;63.35
66479;BME280;53294;47.912;13.526;2023-02-28T08:23:48;96739.66;;;0.88;62.69
66479;BME280;53294;47.912;13.526;2023-02-28T08:26:16;96742.59;;;0.99;62.29
66479;BME280;53294;47.912;13.526;2023-02-28T08:28:43;96737.75;;;1.14;61.89
66479;BME280;53294;47.912;13.526;2023-02-28T08:31:13;96745.25;;;1.17;61.59
66479;BME280;53294;47.912;13.526;2023-02-28T08:33:41;96749.97;;;0.97;61.68
66479;BME280;53294;47.912;13.526;2023-02-28T08:36:08;96751.09;;;0.64;62.15
66479;BME280;53294;47.912;13.526;2023-02-28T08:38:36;96748.63;;;0.69;62.47
66479;BME280;53294;47.912;13.526;2023-02-28T08:41:07;96761.19;;;0.74;61.91
66479;BME280;53294;47.912;13.526;2023-02-28T08:43:35;96757.00;;;0.84;61.92
66479;BME280;53294;47.912;13.526;2023-02-28T08:46:02;96761.44;;;1.09;61.26
66479;BME280;53294;47.912;13.526;2023-02-28T08:48:32;96763.41;;;1.14;61.09
66479;BME280;53294;47.912;13.526;2023-02-28T08:51:06;96757.59;;;1.05;61.01
66479;BME280;53294;47.912;13.526;2023-02-28T08:53:35;96763.47;;;0.88;60.49
66479;BME280;53294;47.912;13.526;2023-02-28T08:56:13;96760.81;;;1.07;61.40
66479;BME280;53294;47.912;13.526;2023-02-28T08:58:40;96762.69;;;1.06;60.65
66479;BME280;53294;47.912;13.526;2023-02-28T09:03:42;96772.84;;;1.58;60.49
66479;BME280;53294;47.912;13.526;2023-02-28T09:06:10;96774.56;;;1.83;59.93
66479;BME280;53294;47.912;13.526;2023-02-28T09:08:38;96776.03;;;1.97;59.55
66479;BME280;53294;47.912;13.526;2023-02-28T09:11:05;96767.09;;;2.22;58.32
66479;BME280;53294;47.912;13.526;2023-02-28T09:13:32;96771.19;;;2.60;57.79
66479;BME280;53294;47.912;13.526;2023-02-28T09:16:01;96783.72;;;2.53;58.34
66479;BME280;53294;47.912;13.526;2023-02-28T09:18:28;96781.09;;;2.53;57.63
66479;BME280;53294;47.912;13.526;2023-02-28T09:20:55;96780.31;;;2.64;57.28
66479;BME280;53294;47.912;13.526;2023-02-28T09:23:21;96776.28;;;2.74;56.40
66479;BME280;53294;47.912;13.526;2023-02-28T09:25:53;96775.22;;;2.75;56.82
66479;BME280;53294;47.912;13.526;2023-02-28T09:28:21;96766.69;;;2.61;57.04
66479;BME280;53294;47.912;13.526;2023-02-28T09:30:51;96770.25;;;2.90;56.79
66479;BME280;53294;47.912;13.526;2023-02-28T09:33:20;96764.34;;;3.12;57.60
66479;BME280;53294;47.912;13.526;2023-02-28T09:35:48;96782.56;;;3.20;56.87
66479;BME280;53294;47.912;13.526;2023-02-28T09:38:15;96778.06;;;3.32;56.39
66479;BME280;53294;47.912;13.526;2023-02-28T09:40:49;96783.22;;;3.51;55.91
66479;BME280;53294;47.912;13.526;2023-02-28T09:43:17;96782.88;;;3.47;55.73
66479;BME280;53294;47.912;13.526;2023-02-28T09:45:56;96788.75;;;3.61;56.02
66479;BME280;53294;47.912;13.526;2023-02-28T09:48:39;96787.47;;;3.64;55.64
66479;BME280;53294;47.912;13.526;2023-02-28T09:53:47;96793.78;;;4.03;55.03
66479;BME280;53294;47.912;13.526;2023-02-28T09:56:25;96796.78;;;4.24;54.66
66479;BME280;53294;47.912;13.526;2023-02-28T10:10:35;96788.84;;;4.75;52.14
66479;BME280;53294;47.912;13.526;2023-02-28T10:13:12;96793.94;;;4.76;52.94
66479;BME280;53294;47.912;13.526;2023-02-28T10:15:41;96799.25;;;4.59;52.94
66479;BME280;53294;47.912;13.526;2023-02-28T10:18:14;96802.47;;;4.78;53.62
66479;BME280;53294;47.912;13.526;2023-02-28T10:20:42;96803.34;;;5.01;53.08
66479;BME280;53294;47.912;13.526;2023-02-28T10:23:17;96802.59;;;5.22;52.44
66479;BME280;53294;47.912;13.526;2023-02-28T10:25:54;96806.44;;;4.93;52.00
66479;BME280;53294;47.912;13.526;2023-02-28T10:28:21;96803.09;;;5.19;51.35
66479;BME280;53294;47.912;13.526;2023-02-28T10:30:51;96796.66;;;5.37;52.70
66479;BME280;53294;47.912;13.526;2023-02-28T10:33:32;96803.34;;;5.01;51.51
66479;BME280;53294;47.912;13.526;2023-02-28T10:36:02;96795.53;;;5.33;53.00
66479;BME280;53294;47.912;13.526;2023-02-28T10:38:34;96804.38;;;5.78;51.30
66479;BME280;53294;47.912;13.526;2023-02-28T10:41:26;96793.63;;;5.95;50.89
66479;BME280;53294;47.912;13.526;2023-02-28T10:44:13;96799.06;;;6.05;49.88
66479;BME280;53294;47.912;13.526;2023-02-28T10:46:41;96790.59;;;6.36;51.01
66479;BME280;53294;47.912;13.526;2023-02-28T10:49:20;96795.31;;;6.28;49.65
66479;BME280;53294;47.912;13.526;2023-02-28T10:51:52;96791.34;;;6.31;49.91
66479;BME280;53294;47.912;13.526;2023-02-28T10:54:43;96780.03;;;6.51;50.00
66479;BME280;53294;47.912;13.526;2023-02-28T10:57:18;96790.78;;;6.99;49.20
66479;BME280;53294;47.912;13.526;2023-02-28T10:59:46;96781.53;;;7.12;48.49
66479;BME280;53294;47.912;13.526;2023-02-28T11:05:32;96785.16;;;6.95;48.20
66479;BME280;53294;47.912;13.526;2023-02-28T11:10:38;96783.44;;;6.79;49.21
66479;BME280;53294;47.912;13.526;2023-02-28T11:13:05;96778.88;;;7.12;47.71
66479;BME280;53294;47.912;13.526;2023-02-28T11:15:33;96777.59;;;7.25;46.84
66479;BME280;53294;47.912;13.526;2023-02-28T11:20:50;96772.16;;;7.57;46.71
66479;BME280;53294;47.912;13.526;2023-02-28T11:23:19;96764.97;;;7.68;45.78
66479;BME280;53294;47.912;13.526;2023-02-28T11:25:52;96776.97;;;7.60;45.06
66479;BME280;53294;47.912;13.526;2023-02-28T11:28:35;96766.38;;;7.96;46.75
66479;BME280;53294;47.912;13.526;2023-02-28T11:36:28;96767.19;;;7.97;45.38
66479;BME280;53294;47.912;13.526;2023-02-28T11:39:00;96763.75;;;8.32;45.42
66479;BME280;53294;47.912;13.526;2023-02-28T11:46:51;96753.56;;;9.22;43.81
66479;BME280;53294;47.912;13.526;2023-02-28T11:49:29;96751.75;;;8.76;43.92
66479;BME280;53294;47.912;13.526;2023-02-28T11:57:25;96741.53;;;9.04;43.82
66479;BME280;53294;47.912;13.526;2023-02-28T12:05:48;96742.91;;;8.80;44.15
66479;BME280;53294;47.912;13.526;2023-02-28T12:08:46;96744.53;;;8.82;44.42
66479;BME280;53294;47.912;13.526;2023-02-28T12:19:35;96750.59;;;7.89;44.89
66479;BME280;53294;47.912;13.526;2023-02-28T12:27:37;96741.25;;;8.07;44.15
66479;BME280;53294;47.912;13.526;2023-02-28T12:30:28;96745.53;;;8.03;45.46
66479;BME280;53294;47.912;13.526;2023-02-28T12:33:03;96733.53;;;8.37;44.55
66479;BME280;53294;47.912;13.526;2023-02-28T12:35:45;96731.13;;;8.66;44.11
66479;BME280;53294;47.912;13.526;2023-02-28T12:38:23;96730.59;;;8.69;43.57
66479;BME280;53294;47.912;13.526;2023-02-28T12:41:00;96725.78;;;8.56;44.68
66479;BME280;53294;47.912;13.526;2023-02-28T12:43:37;96729.22;;;8.97;44.30
66479;BME280;53294;47.912;13.526;2023-02-28T12:48:59;96718.25;;;8.89;45.18
66479;BME280;53294;47.912;13.526;2023-02-28T12:51:28;96711.88;;;8.64;45.12
66479;BME280;53294;47.912;13.526;2023-02-28T12:59:30;96717.47;;;8.37;44.70
66479;BME280;53294;47.912;13.526;2023-02-28T13:10:05;96717.91;;;7.67;45.39
66479;BME280;53294;47.912;13.526;2023-02-28T13:12:34;96716.00;;;7.57;45.97
66479;BME280;53294;47.912;13.526;2023-02-28T13:15:06;96727.16;;;7.44;45.74
66479;BME280;53294;47.912;13.526;2023-02-28T13:17:39;96723.06;;;7.21;46.22
66479;BME280;53294;47.912;13.526;2023-02-28T13:20:19;96724.34;;;7.13;46.32
66479;BME280;53294;47.912;13.526;2023-02-28T13:22:51;96715.69;;;7.48;47.37
66479;BME280;53294;47.912;13.526;2023-02-28T13:27:45;96718.38;;;7.48;47.14
66479;BME280;53294;47.912;13.526;2023-02-28T13:33:36;96723.19;;;6.93;46.64
66479;BME280;53294;47.912;13.526;2023-02-28T13:38:48;96729.06;;;6.90;48.10
66479;BME280;53294;47.912;13.526;2023-02-28T13:49:31;96717.78;;;6.83;49.17
66479;BME280;53294;47.912;13.526;2023-02-28T13:52:11;96718.31;;;6.80;47.91
66479;BME280;53294;47.912;13.526;2023-02-28T14:08:35;96724.03;;;6.56;48.33
66479;BME280;53294;47.912;13.526;2023-02-28T14:11:06;96728.84;;;6.59;49.60
66479;BME280;53294;47.912;13.526;2023-02-28T14:13:43;96727.75;;;6.55;49.53
66479;BME280;53294;47.912;13.526;2023-02-28T14:16:17;96723.50;;;6.59;49.04
66479;BME280;53294;47.912;13.526;2023-02-28T14:19:02;96728.25;;;6.52;49.43
66479;BME280;53294;47.912;13.526;2023-02-28T14:21:34;96723.28;;;6.66;49.79
66479;BME280;53294;47.912;13.526;2023-02-28T14:27:03;96726.34;;;6.47;49.20
66479;BME280;53294;47.912;13.526;2023-02-28T14:32:27;96727.97;;;6.16;50.17
66479;BME280;53294;47.912;13.526;2023-02-28T14:37:43;96720.56;;;6.23;49.72
66479;BME280;53294;47.912;13.526;2023-02-28T14:40:29;96726.09;;;6.17;49.57
66479;BME280;53294;47.912;13.526;2023-02-28T14:42:59;96722.16;;;6.24;50.61
66479;BME280;53294;47.912;13.526;2023-02-28T14:45:34;96727.81;;;6.28;50.59
66479;BME280;53294;47.912;13.526;2023-02-28T14:48:05;96734.53;;;6.36;49.75
66479;BME280;53294;47.912;13.526;2023-02-28T14:50:37;96733.03;;;6.45;49.98
66479;BME280;53294;47.912;13.526;2023-02-28T14:53:06;96735.44;;;6.46;50.03
66479;BME280;53294;47.912;13.526;2023-02-28T14:55:44;96733.75;;;6.73;49.50
66479;BME280;53294;47.912;13.526;2023-02-28T14:58:30;96730.88;;;6.47;49.29
66479;BME280;53294;47.912;13.526;2023-02-28T15:01:00;96739.66;;;6.10;50.86
66479;BME280;53294;47.912;13.526;2023-02-28T15:06:14;96735.06;;;6.05;50.80
66479;BME280;53294;47.912;13.526;2023-02-28T15:08:44;96737.16;;;5.98;51.27
66479;BME280;53294;47.912;13.526;2023-02-28T15:11:16;96733.34;;;5.94;51.00
66479;BME280;53294;47.912;13.526;2023-02-28T15:13:50;96733.97;;;6.01;51.38
66479;BME280;53294;47.912;13.526;2023-02-28T15:16:37;96734.09;;;5.89;51.37
66479;BME280;53294;47.912;13.526;2023-02-28T15:19:29;96733.13;;;5.73;51.77
66479;BME280;53294;47.912;13.526;2023-02-28T15:22:07;96739.78;;;5.49;51.68
66479;BME280;53294;47.912;13.526;2023-02-28T15:24:42;96742.00;;;5.57;52.16
66479;BME280;53294;47.912;13.526;2023-02-28T15:27:19;96742.19;;;5.50;52.50
66479;BME280;53294;47.912;13.526;2023-02-28T15:29:54;96738.84;;;5.16;53.29
66479;BME280;53294;47.912;13.526;2023-02-28T15:32:34;96736.72;;;4.96;53.57
66479;BME280;53294;47.912;13.526;2023-02-28T15:37:48;96741.75;;;4.75;54.33
66479;BME280;53294;47.912;13.526;2023-02-28T15:40:40;96750.63;;;4.64;54.42
66479;BME280;53294;47.912;13.526;2023-02-28T15:43:16;96750.06;;;4.62;54.65
66479;BME280;53294;47.912;13.526;2023-02-28T15:45:52;96746.19;;;4.70;54.82
66479;BME280;53294;47.912;13.526;2023-02-28T15:51:16;96744.59;;;4.52;54.80
66479;BME280;53294;47.912;13.526;2023-02-28T15:56:29;96742.25;;;4.38;55.55
66479;BME280;53294;47.912;13.526;2023-02-28T15:58:59;96740.22;;;4.11;56.23
66479;BME280;53294;47.912;13.526;2023-02-28T16:01:33;96740.06;;;4.01;56.29
66479;BME280;53294;47.912;13.526;2023-02-28T16:04:16;96746.31;;;3.95;56.27
66479;BME280;53294;47.912;13.526;2023-02-28T16:06:44;96740.34;;;3.88;57.13